Skip Navigation Links Skip Navigation Links

Current Weather

San Francisco International, San Francisco

For information only: do not use for flight planning or navigation.
Latest weather
Observation time Tuesday, December 1, 2020 6:12 AM PST
Local time Tuesday, December 1, 2020 7:05 AM PST
Flight conditions Low Instrument Meteorological Conditions
Winds
Wind direction Southwest (220°)
Wind speed 6 mph
Visibility 0.25 mi.
Present weather fog
Sky condition
Ceiling 200 ft. indefinite
Cloud layer vertical visibility 200 ft.
Temperature 46°F
Dewpoint 45°F
Altimeter 30.23 in.Hg
Derived measurements
Relative humidity 93%
Wind chill 44°F
Density altitude -1038 ft.
Remarks
Special weather observation.
METAR SPUS81 KWBC 011416 SPECI KSFO 011412Z 22005KT 1/4SM R28R/1600V2200FT FG VV002 08/07 A3023

Settings

Location code

InnerDrive.Weather 4.0.6770.0 Release CLR 4.0.30319.42000
Copyright ©2018 Inner Drive Technology. All rights reserved. Portions Copyright ©1986-2018 David Braverman.

Find weather

Site navigation


Skip Navigation Links

Place info

Page info

PayPal - The safer, easier way to pay online!

Return home.

Copyright ©2020 Inner Drive Technology. Purveyors of fine, hand-crafted computer software. Page printed 2020-12-01T15:05:50 UTC.